Time,TemperatureF,DewpointF,PressureIn,WindDirection,WindDirectionDegrees,WindSpeedMPH,WindSpeedGustMPH,Humidity,HourlyPrecipIn,Conditions,Clouds,dailyrainin,SoftwareType,DateUTC
2013-10-01 00:00:00,55.3,54.7,30.17,SE,126,0.0,0.0,98,0.00,,,0.00,Wunderground v.1.15,2013-10-01 04:00:00,
2013-10-01 00:01:00,55.3,54.7,30.17,SE,126,0.0,0.0,98,0.00,,,0.00,Wunderground v.1.15,2013-10-01 04:01:00,
2013-10-01 00:02:00,55.2,54.6,30.17,SE,126,0.0,0.0,98,0.00,,,0.00,Wunderground v.1.15,2013-10-01 04:02:00,
2013-10-01 00:03:00,55.2,54.6,30.17,SE,126,0.0,1.0,98,0.00,,,0.00,Wunderground v.1.15,2013-10-01 04:03:00,
2013-10-01 00:04:00,55.1,54.5,30.17,SE,126,0.0,1.0,98,0.00,,,0.00,Wunderground v.1.15,2013-10-01 04:04:00,
2013-10-01 00:06:00,55.0,54.4,30.17,SE,126,0.0,1.0,98,0.00,,,0.00,Wunderground v.1.15,2013-10-01 04:06:00,
2013-10-01 00:08:00,55.0,54.4,30.17,SE,126,0.0,1.0,98,0.00,,,0.00,Wunderground v.1.15,2013-10-01 04:08:00,
2013-10-01 00:10:00,54.9,54.3,30.17,SE,126,0.0,0.0,98,0.00,,,0.00,Wunderground v.1.15,2013-10-01 04:10:00,
2013-10-01 00:11:00,54.9,54.3,30.17,SE,126,0.0,0.0,98,0.00,,,0.00,Wunderground v.1.15,2013-10-01 04:11:00,
2013-10-01 00:13:00,54.9,54.3,30.17,SE,126,0.0,0.0,98,0.00,,,0.00,Wunderground v.1.15,2013-10-01 04:13:00,
2013-10-01 00:14:00,54.9,54.3,30.17,SE,126,0.0,0.0,98,0.00,,,0.00,Wunderground v.1.15,2013-10-01 04:14:00,
2013-10-01 00:17:00,54.8,54.2,30.17,SE,126,0.0,0.0,98,0.00,,,0.00,Wunderground v.1.15,2013-10-01 04:17:00,
2013-10-01 00:19:00,54.8,54.2,30.17,SE,126,0.0,0.0,98,0.00,,,0.00,Wunderground v.1.15,2013-10-01 04:19:00,
2013-10-01 00:20:00,54.7,54.1,30.17,SE,126,0.0,0.0,98,0.00,,,0.00,Wunderground v.1.15,2013-10-01 04:20:00,
2013-10-01 00:21:00,54.7,54.1,30.17,SE,126,0.0,0.0,98,0.00,,,0.00,Wunderground v.1.15,2013-10-01 04:21:00,
2013-10-01 00:25:00,54.6,54.0,30.17,SE,126,0.0,0.0,98,0.00,,,0.00,Wunderground v.1.15,2013-10-01 04:25:00,
2013-10-01 00:26:00,54.6,54.0,30.17,SE,126,0.0,0.0,98,0.00,,,0.00,Wunderground v.1.15,2013-10-01 04:26:00,
2013-10-01 00:27:00,54.5,53.9,30.17,SE,126,0.0,0.0,98,0.00,,,0.00,Wunderground v.1.15,2013-10-01 04:27:00,
2013-10-01 00:30:00,54.5,53.9,30.17,SE,126,0.0,0.0,98,0.00,,,0.00,Wunderground v.1.15,2013-10-01 04:30:00,
2013-10-01 00:34:00,54.4,53.8,30.17,SE,126,0.0,2.0,98,0.00,,,0.00,Wunderground v.1.15,2013-10-01 04:34:00,
2013-10-01 00:35:00,54.3,53.7,30.17,SE,126,0.0,2.0,98,0.00,,,0.00,Wunderground v.1.15,2013-10-01 04:35:00,
2013-10-01 00:39:00,54.2,53.6,30.17,SE,126,0.0,2.0,98,0.00,,,0.00,Wunderground v.1.15,2013-10-01 04:39:00,
2013-10-01 00:40:00,54.2,53.6,30.17,SE,126,0.0,2.0,98,0.00,,,0.00,Wunderground v.1.15,2013-10-01 04:40:00,
2013-10-01 00:43:00,54.2,53.6,30.17,SE,126,0.0,2.0,98,0.00,,,0.00,Wunderground v.1.15,2013-10-01 04:43:00,
2013-10-01 00:44:00,54.2,53.6,30.17,SE,126,0.0,2.0,98,0.00,,,0.00,Wunderground v.1.15,2013-10-01 04:44:00,
2013-10-01 00:45:00,54.2,53.6,30.17,SE,126,0.0,2.0,98,0.00,,,0.00,Wunderground v.1.15,2013-10-01 04:45:00,
2013-10-01 00:49:00,54.2,53.6,30.17,SE,126,0.0,2.0,98,0.00,,,0.00,Wunderground v.1.15,2013-10-01 04:49:00,
2013-10-01 00:50:00,54.2,53.6,30.17,SE,126,0.0,2.0,98,0.00,,,0.00,Wunderground v.1.15,2013-10-01 04:50:00,
2013-10-01 00:51:00,54.2,53.6,30.17,SE,126,0.0,2.0,98,0.00,,,0.00,Wunderground v.1.15,2013-10-01 04:51:00,
2013-10-01 00:55:00,54.0,53.4,30.17,SE,126,0.0,2.0,98,0.00,,,0.00,Wunderground v.1.15,2013-10-01 04:55:00,
2013-10-01 00:56:00,53.9,53.3,30.17,SE,126,0.0,2.0,98,0.00,,,0.00,Wunderground v.1.15,2013-10-01 04:56:00,
2013-10-01 00:59:00,53.8,53.2,30.17,SE,126,0.0,2.0,98,0.00,,,0.00,Wunderground v.1.15,2013-10-01 04:59:00,
2013-10-01 01:00:00,53.8,53.2,30.17,SE,126,0.0,2.0,98,0.00,,,0.00,Wunderground v.1.15,2013-10-01 05:00:00,
2013-10-01 01:02:00,53.7,53.1,30.17,SE,126,0.0,2.0,98,0.00,,,0.00,Wunderground v.1.15,2013-10-01 05:02:00,
2013-10-01 01:05:00,53.7,53.1,30.17,SE,126,0.0,2.0,98,0.00,,,0.00,Wunderground v.1.15,2013-10-01 05:05:00,
2013-10-01 01:06:00,53.7,53.1,30.17,SE,126,0.0,2.0,98,0.00,,,0.00,Wunderground v.1.15,2013-10-01 05:06:00,
2013-10-01 01:09:00,53.6,53.0,30.17,SE,126,0.0,2.0,98,0.00,,,0.00,Wunderground v.1.15,2013-10-01 05:09:00,
2013-10-01 01:11:00,53.5,52.9,30.17,SE,126,0.0,2.0,98,0.00,,,0.00,Wunderground v.1.15,2013-10-01 05:11:00,
2013-10-01 01:15:00,53.4,52.8,30.17,SE,126,0.0,2.0,98,0.00,,,0.00,Wunderground v.1.15,2013-10-01 05:15:00,
2013-10-01 01:16:00,53.4,52.8,30.17,SE,126,0.0,2.0,98,0.00,,,0.00,Wunderground v.1.15,2013-10-01 05:16:00,
2013-10-01 01:18:00,53.4,52.8,30.17,SE,126,0.0,2.0,98,0.00,,,0.00,Wunderground v.1.15,2013-10-01 05:18:00,
2013-10-01 01:19:00,53.4,52.8,30.17,SE,126,0.0,2.0,98,0.00,,,0.00,Wunderground v.1.15,2013-10-01 05:19:00,
2013-10-01 01:20:00,53.4,52.8,30.17,SE,126,0.0,2.0,98,0.00,,,0.00,Wunderground v.1.15,2013-10-01 05:20:00,
2013-10-01 01:22:00,53.3,52.8,30.17,SE,126,0.0,2.0,98,0.00,,,0.00,Wunderground v.1.15,2013-10-01 05:22:00,
2013-10-01 01:23:00,53.3,52.8,30.17,SE,126,0.0,2.0,98,0.00,,,0.00,Wunderground v.1.15,2013-10-01 05:23:00,
2013-10-01 01:24:00,53.3,52.8,30.17,SE,126,0.0,2.0,98,0.00,,,0.00,Wunderground v.1.15,2013-10-01 05:24:00,
2013-10-01 01:27:00,53.2,52.7,30.17,SE,126,0.0,2.0,98,0.00,,,0.00,Wunderground v.1.15,2013-10-01 05:27:00,
2013-10-01 01:29:00,53.2,52.7,30.17,SE,126,0.0,2.0,98,0.00,,,0.00,Wunderground v.1.15,2013-10-01 05:29:00,
2013-10-01 01:31:00,53.2,52.7,30.17,SE,126,0.0,2.0,98,0.00,,,0.00,Wunderground v.1.15,2013-10-01 05:31:00,
2013-10-01 01:32:00,53.1,52.6,30.17,SE,126,0.0,2.0,98,0.00,,,0.00,Wunderground v.1.15,2013-10-01 05:32:00,
2013-10-01 01:34:00,53.1,52.6,30.17,SE,126,0.0,2.0,98,0.00,,,0.00,Wunderground v.1.15,2013-10-01 05:34:00,
2013-10-01 01:36:00,53.0,52.5,30.17,SE,126,0.0,2.0,98,0.00,,,0.00,Wunderground v.1.15,2013-10-01 05:36:00,
2013-10-01 01:38:00,53.0,52.5,30.17,SE,126,0.0,2.0,98,0.00,,,0.00,Wunderground v.1.15,2013-10-01 05:38:00,
2013-10-01 01:40:00,53.0,52.5,30.17,SE,126,0.0,2.0,98,0.00,,,0.00,Wunderground v.1.15,2013-10-01 05:40:00,
2013-10-01 01:41:00,53.0,52.5,30.17,SE,126,0.0,2.0,98,0.00,,,0.00,Wunderground v.1.15,2013-10-01 05:41:00,
2013-10-01 01:43:00,52.9,52.4,30.17,SE,126,0.0,2.0,98,0.00,,,0.00,Wunderground v.1.15,2013-10-01 05:43:00,
2013-10-01 01:46:00,52.8,52.3,30.17,SE,126,0.0,2.0,98,0.00,,,0.00,Wunderground v.1.15,2013-10-01 05:46:00,
2013-10-01 01:49:00,52.7,52.2,30.17,SE,126,0.0,2.0,98,0.00,,,0.00,Wunderground v.1.15,2013-10-01 05:49:00,
2013-10-01 01:52:00,52.7,52.2,30.17,SE,126,0.0,2.0,98,0.00,,,0.00,Wunderground v.1.15,2013-10-01 05:52:00,
2013-10-01 01:54:00,52.6,52.1,30.17,SE,126,0.0,2.0,98,0.00,,,0.00,Wunderground v.1.15,2013-10-01 05:54:00,
2013-10-01 01:56:00,52.6,52.1,30.17,SE,126,0.0,2.0,98,0.00,,,0.00,Wunderground v.1.15,2013-10-01 05:56:00,
2013-10-01 01:58:00,52.6,52.3,30.17,SE,126,0.0,2.0,99,0.00,,,0.00,Wunderground v.1.15,2013-10-01 05:58:00,
2013-10-01 01:59:00,52.6,52.3,30.17,SE,126,0.0,2.0,99,0.00,,,0.00,Wunderground v.1.15,2013-10-01 05:59:00,
2013-10-01 02:00:00,52.7,52.4,30.17,SE,126,0.0,2.0,99,0.00,,,0.00,Wunderground v.1.15,2013-10-01 06:00:00,
2013-10-01 02:04:00,52.7,52.4,30.17,SE,126,0.0,2.0,99,0.00,,,0.00,Wunderground v.1.15,2013-10-01 06:04:00,
2013-10-01 02:05:00,52.6,52.3,30.17,SE,126,0.0,2.0,99,0.00,,,0.00,Wunderground v.1.15,2013-10-01 06:05:00,
2013-10-01 02:06:00,52.6,52.3,30.17,SE,126,0.0,2.0,99,0.00,,,0.00,Wunderground v.1.15,2013-10-01 06:06:00,
2013-10-01 02:10:00,52.4,51.9,30.17,SE,126,0.0,2.0,98,0.00,,,0.00,Wunderground v.1.15,2013-10-01 06:10:00,
2013-10-01 02:11:00,52.4,51.9,30.17,SE,126,0.0,2.0,98,0.00,,,0.00,Wunderground v.1.15,2013-10-01 06:11:00,
2013-10-01 02:12:00,52.3,51.8,30.17,SE,126,0.0,2.0,98,0.00,,,0.00,Wunderground v.1.15,2013-10-01 06:12:00,
2013-10-01 02:17:00,52.3,51.8,30.17,SE,126,0.0,2.0,98,0.00,,,0.00,Wunderground v.1.15,2013-10-01 06:17:00,
2013-10-01 02:18:00,52.3,51.8,30.17,SE,126,0.0,2.0,98,0.00,,,0.00,Wunderground v.1.15,2013-10-01 06:18:00,
2013-10-01 02:23:00,52.1,51.8,30.17,SE,126,0.0,2.0,99,0.00,,,0.00,Wunderground v.1.15,2013-10-01 06:23:00,
2013-10-01 02:24:00,52.1,51.8,30.17,SE,126,0.0,2.0,99,0.00,,,0.00,Wunderground v.1.15,2013-10-01 06:24:00,
2013-10-01 02:25:00,52.1,51.6,30.17,SE,126,0.0,2.0,98,0.00,,,0.00,Wunderground v.1.15,2013-10-01 06:25:00,
2013-10-01 02:28:00,51.9,51.6,30.17,SE,126,0.0,2.0,99,0.00,,,0.00,Wunderground v.1.15,2013-10-01 06:28:00,
2013-10-01 02:30:00,51.9,51.6,30.17,SE,126,0.0,2.0,99,0.00,,,0.00,Wunderground v.1.15,2013-10-01 06:30:00,
2013-10-01 02:31:00,51.8,51.3,30.17,SE,126,0.0,2.0,98,0.00,,,0.00,Wunderground v.1.15,2013-10-01 06:31:00,
2013-10-01 02:34:00,51.7,51.2,30.17,SE,126,0.0,2.0,98,0.00,,,0.00,Wunderground v.1.15,2013-10-01 06:34:00,
2013-10-01 02:35:00,51.7,51.2,30.17,SE,126,0.0,2.0,98,0.00,,,0.00,Wunderground v.1.15,2013-10-01 06:35:00,
2013-10-01 02:38:00,51.6,51.1,30.17,SE,126,0.0,2.0,98,0.00,,,0.00,Wunderground v.1.15,2013-10-01 06:38:00,
2013-10-01 02:39:00,51.5,51.0,30.17,SE,126,0.0,2.0,98,0.00,,,0.00,Wunderground v.1.15,2013-10-01 06:39:00,
2013-10-01 02:44:00,51.4,50.9,30.17,SE,126,0.0,2.0,98,0.00,,,0.00,Wunderground v.1.15,2013-10-01 06:44:00,
2013-10-01 02:46:00,51.4,51.1,30.17,SE,126,0.0,2.0,99,0.00,,,0.00,Wunderground v.1.15,2013-10-01 06:46:00,
2013-10-01 02:47:00,51.4,51.1,30.17,SE,126,0.0,2.0,99,0.00,,,0.00,Wunderground v.1.15,2013-10-01 06:47:00,
2013-10-01 02:48:00,51.4,51.1,30.17,SE,126,0.0,2.0,99,0.00,,,0.00,Wunderground v.1.15,2013-10-01 06:48:00,
2013-10-01 02:50:00,51.4,51.1,30.17,SE,126,0.0,2.0,99,0.00,,,0.01,Wunderground v.1.15,2013-10-01 06:50:00,
2013-10-01 02:53:00,51.4,51.1,30.17,SE,126,0.0,2.0,99,0.00,,,0.01,Wunderground v.1.15,2013-10-01 06:53:00,
2013-10-01 02:54:00,51.4,51.1,30.17,SE,126,0.0,2.0,99,0.00,,,0.01,Wunderground v.1.15,2013-10-01 06:54:00,
2013-10-01 02:56:00,51.3,51.0,30.17,SE,126,0.0,2.0,99,0.00,,,0.01,Wunderground v.1.15,2013-10-01 06:56:00,
2013-10-01 02:57:00,51.3,50.8,30.17,SE,126,0.0,2.0,98,0.00,,,0.01,Wunderground v.1.15,2013-10-01 06:57:00,
2013-10-01 03:00:00,51.2,50.7,30.17,SE,126,0.0,2.0,98,0.00,,,0.01,Wunderground v.1.15,2013-10-01 07:00:00,
2013-10-01 03:02:00,51.2,50.7,30.17,SE,126,0.0,2.0,98,0.00,,,0.01,Wunderground v.1.15,2013-10-01 07:02:00,
2013-10-01 03:07:00,51.1,50.6,30.17,SE,126,0.0,2.0,98,0.00,,,0.01,Wunderground v.1.15,2013-10-01 07:07:00,
2013-10-01 03:08:00,51.0,50.5,30.17,SE,126,0.0,2.0,98,0.00,,,0.01,Wunderground v.1.15,2013-10-01 07:08:00,
2013-10-01 03:09:00,51.0,50.7,30.17,SE,126,0.0,2.0,99,0.00,,,0.01,Wunderground v.1.15,2013-10-01 07:09:00,
2013-10-01 03:12:00,51.0,50.7,30.17,SE,126,0.0,2.0,99,0.00,,,0.01,Wunderground v.1.15,2013-10-01 07:12:00,
2013-10-01 03:14:00,50.9,50.6,30.17,SE,126,0.0,2.0,99,0.00,,,0.01,Wunderground v.1.15,2013-10-01 07:14:00,
2013-10-01 03:18:00,50.9,50.6,30.17,SE,126,0.0,2.0,99,0.00,,,0.01,Wunderground v.1.15,2013-10-01 07:18:00,
2013-10-01 03:19:00,50.9,50.6,30.17,SE,126,0.0,2.0,99,0.00,,,0.01,Wunderground v.1.15,2013-10-01 07:19:00,
2013-10-01 03:21:00,50.9,50.6,30.17,SE,126,0.0,2.0,99,0.00,,,0.01,Wunderground v.1.15,2013-10-01 07:21:00,
2013-10-01 03:24:00,50.8,50.5,30.17,SE,126,0.0,2.0,99,0.00,,,0.01,Wunderground v.1.15,2013-10-01 07:24:00,
2013-10-01 03:25:00,50.8,50.5,30.18,SE,126,0.0,2.0,99,0.00,,,0.01,Wunderground v.1.15,2013-10-01 07:25:00,
2013-10-01 03:26:00,50.8,50.5,30.17,SE,126,0.0,2.0,99,0.00,,,0.01,Wunderground v.1.15,2013-10-01 07:26:00,
2013-10-01 03:30:00,50.7,50.4,30.18,SE,126,0.0,2.0,99,0.00,,,0.01,Wunderground v.1.15,2013-10-01 07:30:00,
2013-10-01 03:32:00,50.6,50.3,30.18,SE,126,0.0,2.0,99,0.00,,,0.01,Wunderground v.1.15,2013-10-01 07:32:00,
2013-10-01 03:34:00,50.5,50.0,30.18,SE,126,0.0,2.0,98,0.00,,,0.01,Wunderground v.1.15,2013-10-01 07:34:00,
2013-10-01 03:36:00,50.5,50.2,30.18,SE,126,0.0,2.0,99,0.00,,,0.01,Wunderground v.1.15,2013-10-01 07:36:00,
2013-10-01 03:37:00,50.4,50.1,30.18,SE,126,0.0,2.0,99,0.00,,,0.01,Wunderground v.1.15,2013-10-01 07:37:00,
2013-10-01 03:42:00,50.3,50.0,30.18,SE,126,0.0,2.0,99,0.00,,,0.01,Wunderground v.1.15,2013-10-01 07:42:00,
2013-10-01 03:43:00,50.3,50.0,30.18,SE,126,0.0,2.0,99,0.00,,,0.01,Wunderground v.1.15,2013-10-01 07:43:00,
2013-10-01 03:44:00,50.3,50.0,30.18,SE,126,0.0,2.0,99,0.00,,,0.01,Wunderground v.1.15,2013-10-01 07:44:00,
2013-10-01 03:49:00,50.3,50.0,30.18,SE,126,0.0,2.0,99,0.00,,,0.01,Wunderground v.1.15,2013-10-01 07:49:00,
2013-10-01 03:50:00,50.3,50.0,30.18,SE,126,0.0,2.0,99,0.00,,,0.01,Wunderground v.1.15,2013-10-01 07:50:00,
2013-10-01 03:54:00,50.3,50.0,30.18,SE,126,0.0,2.0,99,0.00,,,0.01,Wunderground v.1.15,2013-10-01 07:54:00,
2013-10-01 03:55:00,50.2,49.9,30.18,SE,126,0.0,2.0,99,0.00,,,0.01,Wunderground v.1.15,2013-10-01 07:55:00,
2013-10-01 03:59:00,50.2,49.9,30.18,SE,126,0.0,2.0,99,0.00,,,0.01,Wunderground v.1.15,2013-10-01 07:59:00,
2013-10-01 04:02:00,50.2,49.9,30.18,SE,126,0.0,2.0,99,0.00,,,0.01,Wunderground v.1.15,2013-10-01 08:02:00,
2013-10-01 04:06:00,50.3,50.0,30.18,SE,126,0.0,2.0,99,0.00,,,0.01,Wunderground v.1.15,2013-10-01 08:06:00,
2013-10-01 04:08:00,50.3,50.0,30.18,SE,126,0.0,2.0,99,0.00,,,0.01,Wunderground v.1.15,2013-10-01 08:08:00,
2013-10-01 04:13:00,50.2,49.9,30.17,SE,126,0.0,2.0,99,0.00,,,0.01,Wunderground v.1.15,2013-10-01 08:13:00,
2013-10-01 04:15:00,50.0,49.7,30.18,SE,126,0.0,2.0,99,0.00,,,0.01,Wunderground v.1.15,2013-10-01 08:15:00,
2013-10-01 04:18:00,49.9,49.6,30.18,SE,126,0.0,2.0,99,0.00,,,0.01,Wunderground v.1.15,2013-10-01 08:18:00,
2013-10-01 04:20:00,49.8,49.5,30.18,SE,126,0.0,2.0,99,0.00,,,0.01,Wunderground v.1.15,2013-10-01 08:20:00,
2013-10-01 04:25:00,49.9,49.6,30.18,SE,126,0.0,2.0,99,0.00,,,0.01,Wunderground v.1.15,2013-10-01 08:25:00,
2013-10-01 04:26:00,49.9,49.6,30.18,SE,126,0.0,2.0,99,0.00,,,0.01,Wunderground v.1.15,2013-10-01 08:26:00,
2013-10-01 04:30:00,49.9,49.6,30.18,SE,126,0.0,2.0,99,0.00,,,0.01,Wunderground v.1.15,2013-10-01 08:30:00,
2013-10-01 04:32:00,49.8,49.5,30.18,SE,126,0.0,2.0,99,0.00,,,0.01,Wunderground v.1.15,2013-10-01 08:32:00,
2013-10-01 04:35:00,49.8,49.5,30.18,SE,126,0.0,2.0,99,0.00,,,0.01,Wunderground v.1.15,2013-10-01 08:35:00,
2013-10-01 04:36:00,49.8,49.5,30.18,SE,126,0.0,2.0,99,0.00,,,0.01,Wunderground v.1.15,2013-10-01 08:36:00,
2013-10-01 04:37:00,49.7,49.4,30.18,SE,128,0.0,2.0,99,0.00,,,0.01,Wunderground v.1.15,2013-10-01 08:37:00,
2013-10-01 04:42:00,49.7,49.4,30.18,SE,128,0.0,2.0,99,0.00,,,0.01,Wunderground v.1.15,2013-10-01 08:42:00,
2013-10-01 04:43:00,49.8,49.5,30.18,SE,128,0.0,2.0,99,0.00,,,0.01,Wunderground v.1.15,2013-10-01 08:43:00,
2013-10-01 04:46:00,49.8,49.5,30.18,SE,128,0.0,2.0,99,0.00,,,0.01,Wunderground v.1.15,2013-10-01 08:46:00,
2013-10-01 04:48:00,49.8,49.5,30.18,SE,128,0.0,2.0,99,0.00,,,0.01,Wunderground v.1.15,2013-10-01 08:48:00,
2013-10-01 04:49:00,49.8,49.5,30.18,SE,128,0.0,2.0,99,0.00,,,0.01,Wunderground v.1.15,2013-10-01 08:49:00,
2013-10-01 04:53:00,49.8,49.5,30.18,SE,128,0.0,2.0,99,0.00,,,0.01,Wunderground v.1.15,2013-10-01 08:53:00,
2013-10-01 04:57:00,49.8,49.5,30.18,SE,128,0.0,2.0,99,0.00,,,0.01,Wunderground v.1.15,2013-10-01 08:57:00,
2013-10-01 04:59:00,49.8,49.5,30.18,SE,128,0.0,2.0,99,0.00,,,0.01,Wunderground v.1.15,2013-10-01 08:59:00,
2013-10-01 05:00:00,49.8,49.5,30.18,SE,128,0.0,2.0,99,0.00,,,0.01,Wunderground v.1.15,2013-10-01 09:00:00,
2013-10-01 05:05:00,50.1,49.8,30.19,SE,128,0.0,2.0,99,0.00,,,0.01,Wunderground v.1.15,2013-10-01 09:05:00,
2013-10-01 05:07:00,50.0,49.7,30.19,SE,128,0.0,2.0,99,0.00,,,0.01,Wunderground v.1.15,2013-10-01 09:07:00,
2013-10-01 05:12:00,49.9,49.6,30.19,SE,128,0.0,2.0,99,0.00,,,0.01,Wunderground v.1.15,2013-10-01 09:12:00,
2013-10-01 05:13:00,49.8,49.5,30.19,SE,128,0.0,2.0,99,0.00,,,0.01,Wunderground v.1.15,2013-10-01 09:13:00,
2013-10-01 05:14:00,49.8,49.5,30.19,SE,128,0.0,2.0,99,0.00,,,0.01,Wunderground v.1.15,2013-10-01 09:14:00,
2013-10-01 05:19:00,49.9,49.6,30.19,SE,128,0.0,2.0,99,0.00,,,0.01,Wunderground v.1.15,2013-10-01 09:19:00,
2013-10-01 05:20:00,49.9,49.6,30.19,SE,128,0.0,2.0,99,0.00,,,0.01,Wunderground v.1.15,2013-10-01 09:20:00,
2013-10-01 05:25:00,50.0,49.7,30.19,SE,128,0.0,2.0,99,0.00,,,0.01,Wunderground v.1.15,2013-10-01 09:25:00,
2013-10-01 05:26:00,49.9,49.6,30.19,SE,128,0.0,2.0,99,0.00,,,0.01,Wunderground v.1.15,2013-10-01 09:26:00,
2013-10-01 05:27:00,49.9,49.6,30.19,SE,128,0.0,2.0,99,0.00,,,0.01,Wunderground v.1.15,2013-10-01 09:27:00,
2013-10-01 05:33:00,49.9,49.6,30.19,SE,128,0.0,2.0,99,0.00,,,0.01,Wunderground v.1.15,2013-10-01 09:33:00,
2013-10-01 05:36:00,49.9,49.6,30.19,SE,128,0.0,2.0,99,0.00,,,0.01,Wunderground v.1.15,2013-10-01 09:36:00,
2013-10-01 05:40:00,49.9,49.6,30.19,SE,128,0.0,2.0,99,0.00,,,0.01,Wunderground v.1.15,2013-10-01 09:40:00,
2013-10-01 05:43:00,49.9,49.6,30.20,SE,128,0.0,2.0,99,0.00,,,0.01,Wunderground v.1.15,2013-10-01 09:43:00,
2013-10-01 05:44:00,49.9,49.6,30.20,SE,128,0.0,2.0,99,0.00,,,0.01,Wunderground v.1.15,2013-10-01 09:44:00,
2013-10-01 05:45:00,49.9,49.6,30.20,SE,128,0.0,2.0,99,0.00,,,0.01,Wunderground v.1.15,2013-10-01 09:45:00,
2013-10-01 05:51:00,49.8,49.5,30.20,SE,128,0.0,2.0,99,0.00,,,0.01,Wunderground v.1.15,2013-10-01 09:51:00,
2013-10-01 05:52:00,49.9,49.6,30.20,SE,128,0.0,2.0,99,0.00,,,0.01,Wunderground v.1.15,2013-10-01 09:52:00,
2013-10-01 05:55:00,49.9,49.6,30.20,SE,128,0.0,2.0,99,0.00,,,0.01,Wunderground v.1.15,2013-10-01 09:55:00,
2013-10-01 05:57:00,49.9,49.6,30.20,SE,128,0.0,2.0,99,0.00,,,0.01,Wunderground v.1.15,2013-10-01 09:57:00,
2013-10-01 05:59:00,49.9,49.6,30.20,SE,128,0.0,2.0,99,0.00,,,0.01,Wunderground v.1.15,2013-10-01 09:59:00,
2013-10-01 06:02:00,49.9,49.6,30.20,SE,128,0.0,2.0,99,0.00,,,0.01,Wunderground v.1.15,2013-10-01 10:02:00,
2013-10-01 06:03:00,49.9,49.6,30.20,SE,128,0.0,2.0,99,0.00,,,0.01,Wunderground v.1.15,2013-10-01 10:03:00,
2013-10-01 06:06:00,49.8,49.5,30.20,SE,128,0.0,2.0,99,0.00,,,0.01,Wunderground v.1.15,2013-10-01 10:06:00,
2013-10-01 06:09:00,49.7,49.4,30.20,SE,128,0.0,2.0,99,0.00,,,0.01,Wunderground v.1.15,2013-10-01 10:09:00,
2013-10-01 06:10:00,49.7,49.4,30.20,SE,128,0.0,2.0,99,0.00,,,0.01,Wunderground v.1.15,2013-10-01 10:10:00,
2013-10-01 06:12:00,49.7,49.4,30.20,SE,128,0.0,2.0,99,0.00,,,0.01,Wunderground v.1.15,2013-10-01 10:12:00,
2013-10-01 06:14:00,49.6,49.3,30.20,SE,128,0.0,2.0,99,0.00,,,0.01,Wunderground v.1.15,2013-10-01 10:14:00,
2013-10-01 06:19:00,49.5,49.2,30.21,SE,128,0.0,2.0,99,0.00,,,0.01,Wunderground v.1.15,2013-10-01 10:19:00,
2013-10-01 06:20:00,49.6,49.3,30.21,SE,128,0.0,2.0,99,0.00,,,0.01,Wunderground v.1.15,2013-10-01 10:20:00,
2013-10-01 06:23:00,49.6,49.3,30.21,SE,128,0.0,2.0,99,0.00,,,0.01,Wunderground v.1.15,2013-10-01 10:23:00,
2013-10-01 06:27:00,49.6,49.3,30.21,SE,128,0.0,2.0,99,0.00,,,0.01,Wunderground v.1.15,2013-10-01 10:27:00,
2013-10-01 06:29:00,49.6,49.3,30.21,SE,128,0.0,2.0,99,0.00,,,0.01,Wunderground v.1.15,2013-10-01 10:29:00,
2013-10-01 06:30:00,49.6,49.3,30.21,SE,128,0.0,2.0,99,0.00,,,0.01,Wunderground v.1.15,2013-10-01 10:30:00,
2013-10-01 06:35:00,49.7,49.4,30.21,SE,128,0.0,2.0,99,0.00,,,0.01,Wunderground v.1.15,2013-10-01 10:35:00,
2013-10-01 06:37:00,49.7,49.4,30.21,SE,128,0.0,2.0,99,0.00,,,0.01,Wunderground v.1.15,2013-10-01 10:37:00,
2013-10-01 06:39:00,49.8,49.5,30.21,SE,128,0.0,2.0,99,0.00,,,0.01,Wunderground v.1.15,2013-10-01 10:39:00,
2013-10-01 06:44:00,49.8,49.5,30.21,SE,128,0.0,2.0,99,0.00,,,0.01,Wunderground v.1.15,2013-10-01 10:44:00,
2013-10-01 06:45:00,49.8,49.5,30.21,SE,128,0.0,2.0,99,0.00,,,0.01,Wunderground v.1.15,2013-10-01 10:45:00,
2013-10-01 06:49:00,49.8,49.5,30.22,SE,128,0.0,2.0,99,0.00,,,0.01,Wunderground v.1.15,2013-10-01 10:49:00,
2013-10-01 06:51:00,49.8,49.5,30.22,SE,128,0.0,2.0,99,0.00,,,0.01,Wunderground v.1.15,2013-10-01 10:51:00,
2013-10-01 06:52:00,49.8,49.5,30.22,SE,128,0.0,2.0,99,0.00,,,0.01,Wunderground v.1.15,2013-10-01 10:52:00,
2013-10-01 06:54:00,49.8,49.5,30.22,SE,128,0.0,2.0,99,0.00,,,0.01,Wunderground v.1.15,2013-10-01 10:54:00,
2013-10-01 06:57:00,49.8,49.5,30.22,SE,128,0.0,2.0,99,0.00,,,0.01,Wunderground v.1.15,2013-10-01 10:57:00,
2013-10-01 06:59:00,49.8,49.5,30.22,SE,128,0.0,2.0,99,0.00,,,0.01,Wunderground v.1.15,2013-10-01 10:59:00,
2013-10-01 07:04:00,49.8,49.5,30.22,SE,128,0.0,2.0,99,0.00,,,0.01,Wunderground v.1.15,2013-10-01 11:04:00,
2013-10-01 07:06:00,49.7,49.4,30.21,SE,128,0.0,2.0,99,0.00,,,0.01,Wunderground v.1.15,2013-10-01 11:06:00,
2013-10-01 07:10:00,49.8,49.5,30.22,SE,128,0.0,2.0,99,0.00,,,0.01,Wunderground v.1.15,2013-10-01 11:10:00,
2013-10-01 07:12:00,49.8,49.5,30.22,SE,128,0.0,2.0,99,0.00,,,0.01,Wunderground v.1.15,2013-10-01 11:12:00,
2013-10-01 07:15:00,49.9,49.6,30.22,SE,128,0.0,2.0,99,0.00,,,0.01,Wunderground v.1.15,2013-10-01 11:15:00,
2013-10-01 07:17:00,49.9,49.6,30.22,SE,128,0.0,2.0,99,0.00,,,0.01,Wunderground v.1.15,2013-10-01 11:17:00,
2013-10-01 07:21:00,50.0,49.7,30.22,SE,128,0.0,2.0,99,0.00,,,0.01,Wunderground v.1.15,2013-10-01 11:21:00,
2013-10-01 07:22:00,50.0,49.7,30.22,SE,128,0.0,2.0,99,0.00,,,0.01,Wunderground v.1.15,2013-10-01 11:22:00,
2013-10-01 07:27:00,50.1,49.8,30.22,SE,128,0.0,2.0,99,0.00,,,0.01,Wunderground v.1.15,2013-10-01 11:27:00,
2013-10-01 07:29:00,50.1,49.8,30.22,SE,128,0.0,2.0,99,0.00,,,0.01,Wunderground v.1.15,2013-10-01 11:29:00,
2013-10-01 07:32:00,50.1,49.8,30.22,SE,128,0.0,2.0,99,0.00,,,0.01,Wunderground v.1.15,2013-10-01 11:32:00,
2013-10-01 07:34:00,50.1,49.8,30.22,SE,128,0.0,2.0,99,0.00,,,0.01,Wunderground v.1.15,2013-10-01 11:34:00,
2013-10-01 07:35:00,50.2,49.9,30.23,SE,128,0.0,2.0,99,0.00,,,0.01,Wunderground v.1.15,2013-10-01 11:35:00,
2013-10-01 07:39:00,50.2,49.9,30.23,SE,128,0.0,2.0,99,0.00,,,0.01,Wunderground v.1.15,2013-10-01 11:39:00,
2013-10-01 07:41:00,50.2,49.9,30.23,SE,128,0.0,2.0,99,0.00,,,0.01,Wunderground v.1.15,2013-10-01 11:41:00,
2013-10-01 07:42:00,50.2,49.9,30.23,SE,128,0.0,2.0,99,0.00,,,0.01,Wunderground v.1.15,2013-10-01 11:42:00,
2013-10-01 07:44:00,50.2,49.9,30.23,SE,128,0.0,2.0,99,0.00,,,0.01,Wunderground v.1.15,2013-10-01 11:44:00,
2013-10-01 07:49:00,50.3,50.0,30.23,SE,128,0.0,2.0,99,0.00,,,0.01,Wunderground v.1.15,2013-10-01 11:49:00,
2013-10-01 07:54:00,50.3,50.0,30.23,SE,128,0.0,2.0,99,0.00,,,0.01,Wunderground v.1.15,2013-10-01 11:54:00,
2013-10-01 07:55:00,50.3,50.0,30.24,SE,128,0.0,2.0,99,0.00,,,0.01,Wunderground v.1.15,2013-10-01 11:55:00,
2013-10-01 07:59:00,50.4,50.1,30.24,SE,128,0.0,2.0,99,0.00,,,0.01,Wunderground v.1.15,2013-10-01 11:59:00,
2013-10-01 08:01:00,50.4,50.1,30.23,SE,128,0.0,2.0,99,0.00,,,0.01,Wunderground v.1.15,2013-10-01 12:01:00,
2013-10-01 08:03:00,50.4,50.4,30.24,SE,128,0.0,2.0,100,0.00,,,0.01,Wunderground v.1.15,2013-10-01 12:03:00,
2013-10-01 08:04:00,50.4,50.4,30.23,SSE,164,0.0,2.0,100,0.00,,,0.01,Wunderground v.1.15,2013-10-01 12:04:00,
2013-10-01 08:06:00,50.5,50.5,30.24,South,186,0.0,2.0,100,0.00,,,0.01,Wunderground v.1.15,2013-10-01 12:06:00,
2013-10-01 08:12:00,50.6,50.6,30.24,South,186,0.0,2.0,100,0.00,,,0.01,Wunderground v.1.15,2013-10-01 12:12:00,
2013-10-01 08:14:00,50.7,50.7,30.24,South,186,0.0,2.0,100,0.00,,,0.01,Wunderground v.1.15,2013-10-01 12:14:00,
2013-10-01 08:18:00,50.8,50.5,30.24,South,185,0.0,2.0,99,0.00,,,0.01,Wunderground v.1.15,2013-10-01 12:18:00,
2013-10-01 08:20:00,50.9,50.6,30.24,South,185,0.0,2.0,99,0.00,,,0.01,Wunderground v.1.15,2013-10-01 12:20:00,
2013-10-01 08:23:00,50.9,50.6,30.24,South,185,0.0,2.0,99,0.00,,,0.01,Wunderground v.1.15,2013-10-01 12:23:00,
2013-10-01 08:28:00,50.9,50.6,30.24,South,185,1.0,2.0,99,0.00,,,0.01,Wunderground v.1.15,2013-10-01 12:28:00,
2013-10-01 08:29:00,50.9,50.6,30.24,South,185,1.0,2.0,99,0.00,,,0.01,Wunderground v.1.15,2013-10-01 12:29:00,
2013-10-01 08:30:00,50.9,50.6,30.24,South,185,1.0,2.0,99,0.00,,,0.01,Wunderground v.1.15,2013-10-01 12:30:00,
2013-10-01 08:34:00,51.1,51.1,30.24,South,185,1.0,2.0,100,0.00,,,0.01,Wunderground v.1.15,2013-10-01 12:34:00,
2013-10-01 08:36:00,51.1,51.1,30.24,South,185,1.0,2.0,100,0.00,,,0.01,Wunderground v.1.15,2013-10-01 12:36:00,
2013-10-01 08:38:00,51.2,51.2,30.24,South,185,1.0,2.0,100,0.00,,,0.01,Wunderground v.1.15,2013-10-01 12:38:00,
2013-10-01 08:41:00,51.2,51.2,30.25,South,185,0.0,2.0,100,0.00,,,0.01,Wunderground v.1.15,2013-10-01 12:41:00,
2013-10-01 08:43:00,51.2,51.2,30.25,South,185,0.0,2.0,100,0.00,,,0.01,Wunderground v.1.15,2013-10-01 12:43:00,
2013-10-01 08:45:00,51.3,51.3,30.25,South,185,0.0,2.0,100,0.00,,,0.01,Wunderground v.1.15,2013-10-01 12:45:00,
2013-10-01 08:47:00,51.3,51.0,30.25,South,185,0.0,2.0,99,0.00,,,0.01,Wunderground v.1.15,2013-10-01 12:47:00,
2013-10-01 08:50:00,51.4,51.1,30.25,South,185,0.0,2.0,99,0.00,,,0.01,Wunderground v.1.15,2013-10-01 12:50:00,
2013-10-01 08:52:00,51.5,51.2,30.25,South,185,0.0,2.0,99,0.00,,,0.01,Wunderground v.1.15,2013-10-01 12:52:00,
2013-10-01 08:57:00,51.6,51.3,30.25,South,185,0.0,2.0,99,0.00,,,0.01,Wunderground v.1.15,2013-10-01 12:57:00,
2013-10-01 08:58:00,51.7,51.7,30.25,South,185,0.0,2.0,100,0.00,,,0.01,Wunderground v.1.15,2013-10-01 12:58:00,
2013-10-01 08:59:00,51.7,51.7,30.25,South,185,0.0,2.0,100,0.00,,,0.01,Wunderground v.1.15,2013-10-01 12:59:00,
2013-10-01 09:05:00,52.1,52.1,30.25,South,185,0.0,2.0,100,0.00,,,0.01,Wunderground v.1.15,2013-10-01 13:05:00,
2013-10-01 09:06:00,52.1,52.1,30.25,South,185,0.0,2.0,100,0.00,,,0.01,Wunderground v.1.15,2013-10-01 13:06:00,
2013-10-01 09:11:00,52.4,52.4,30.25,South,185,0.0,2.0,100,0.00,,,0.01,Wunderground v.1.15,2013-10-01 13:11:00,
2013-10-01 09:12:00,52.4,52.4,30.25,South,185,0.0,2.0,100,0.00,,,0.01,Wunderground v.1.15,2013-10-01 13:12:00,
2013-10-01 09:17:00,52.4,52.4,30.25,South,185,0.0,2.0,100,0.00,,,0.01,Wunderground v.1.15,2013-10-01 13:17:00,
2013-10-01 09:18:00,52.5,52.5,30.25,South,185,0.0,2.0,100,0.00,,,0.01,Wunderground v.1.15,2013-10-01 13:18:00,
2013-10-01 09:23:00,52.8,52.8,30.25,South,185,0.0,2.0,100,0.00,,,0.01,Wunderground v.1.15,2013-10-01 13:23:00,
2013-10-01 09:26:00,53.0,53.0,30.25,South,185,0.0,2.0,100,0.00,,,0.01,Wunderground v.1.15,2013-10-01 13:26:00,
2013-10-01 09:27:00,53.1,53.1,30.25,South,185,0.0,2.0,100,0.00,,,0.01,Wunderground v.1.15,2013-10-01 13:27:00,
2013-10-01 09:33:00,53.3,53.3,30.25,South,185,1.0,2.0,100,0.00,,,0.01,Wunderground v.1.15,2013-10-01 13:33:00,
2013-10-01 09:34:00,53.3,53.3,30.25,South,185,1.0,2.0,100,0.00,,,0.01,Wunderground v.1.15,2013-10-01 13:34:00,
2013-10-01 09:36:00,53.5,53.5,30.25,South,185,1.0,2.0,100,0.00,,,0.01,Wunderground v.1.15,2013-10-01 13:36:00,
2013-10-01 09:38:00,53.7,53.7,30.26,South,185,0.0,2.0,100,0.00,,,0.01,Wunderground v.1.15,2013-10-01 13:38:00,
2013-10-01 09:40:00,53.9,53.9,30.26,South,185,0.0,2.0,100,0.00,,,0.01,Wunderground v.1.15,2013-10-01 13:40:00,
2013-10-01 09:45:00,54.4,54.4,30.26,South,185,1.0,2.0,100,0.00,,,0.01,Wunderground v.1.15,2013-10-01 13:45:00,
2013-10-01 09:46:00,54.4,54.4,30.26,South,186,1.0,2.0,100,0.00,,,0.01,Wunderground v.1.15,2013-10-01 13:46:00,
2013-10-01 09:48:00,54.2,54.2,30.26,South,186,1.0,4.0,100,0.00,,,0.01,Wunderground v.1.15,2013-10-01 13:48:00,
2013-10-01 09:53:00,54.2,54.2,30.26,South,186,1.0,2.0,100,0.00,,,0.01,Wunderground v.1.15,2013-10-01 13:53:00,
2013-10-01 09:54:00,54.2,54.2,30.26,South,186,1.0,2.0,100,0.00,,,0.01,Wunderground v.1.15,2013-10-01 13:54:00,
2013-10-01 09:55:00,54.3,54.3,30.26,South,186,1.0,2.0,100,0.00,,,0.01,Wunderground v.1.15,2013-10-01 13:55:00,
2013-10-01 09:59:00,54.7,54.7,30.26,SSW,212,1.0,3.0,100,0.00,,,0.01,Wunderground v.1.15,2013-10-01 13:59:00,
2013-10-01 10:01:00,54.8,54.8,30.26,SSW,203,1.0,5.0,100,0.00,,,0.01,Wunderground v.1.15,2013-10-01 14:01:00,
2013-10-01 10:02:00,54.8,54.8,30.26,SSW,198,2.0,5.0,100,0.00,,,0.01,Wunderground v.1.15,2013-10-01 14:02:00,
2013-10-01 10:05:00,54.8,54.8,30.26,SSW,198,2.0,5.0,100,0.00,,,0.01,Wunderground v.1.15,2013-10-01 14:05:00,
2013-10-01 10:06:00,54.9,54.9,30.26,SSW,198,2.0,5.0,100,0.00,,,0.01,Wunderground v.1.15,2013-10-01 14:06:00,
2013-10-01 10:10:00,55.3,55.3,30.26,SSW,210,2.0,3.0,100,0.00,,,0.01,Wunderground v.1.15,2013-10-01 14:10:00,
2013-10-01 10:11:00,55.3,55.3,30.26,SSW,211,2.0,3.0,100,0.00,,,0.01,Wunderground v.1.15,2013-10-01 14:11:00,
2013-10-01 10:12:00,55.4,55.4,30.26,SSW,211,2.0,3.0,100,0.00,,,0.01,Wunderground v.1.15,2013-10-01 14:12:00,
2013-10-01 10:16:00,55.5,55.5,30.26,SSW,211,1.0,3.0,100,0.00,,,0.01,Wunderground v.1.15,2013-10-01 14:16:00,
2013-10-01 10:17:00,55.5,55.5,30.26,SSW,211,1.0,3.0,100,0.00,,,0.01,Wunderground v.1.15,2013-10-01 14:17:00,
2013-10-01 10:18:00,55.6,55.6,30.26,SSW,211,1.0,3.0,100,0.00,,,0.01,Wunderground v.1.15,2013-10-01 14:18:00,
2013-10-01 10:21:00,55.9,55.9,30.26,SW,236,1.0,2.0,100,0.00,,,0.01,Wunderground v.1.15,2013-10-01 14:21:00,
2013-10-01 10:22:00,55.9,55.9,30.26,WSW,238,1.0,2.0,100,0.00,,,0.01,Wunderground v.1.15,2013-10-01 14:22:00,
2013-10-01 10:26:00,55.9,55.9,30.27,WSW,238,1.0,2.0,100,0.00,,,0.01,Wunderground v.1.15,2013-10-01 14:26:00,
2013-10-01 10:28:00,56.0,56.0,30.27,WSW,238,1.0,2.0,100,0.00,,,0.01,Wunderground v.1.15,2013-10-01 14:28:00,
2013-10-01 10:30:00,56.1,56.1,30.26,WSW,238,1.0,1.0,100,0.00,,,0.01,Wunderground v.1.15,2013-10-01 14:30:00,
2013-10-01 10:32:00,56.4,56.4,30.26,WSW,238,1.0,2.0,100,0.00,,,0.01,Wunderground v.1.15,2013-10-01 14:32:00,
2013-10-01 10:35:00,56.8,56.8,30.26,WSW,238,0.0,2.0,100,0.00,,,0.01,Wunderground v.1.15,2013-10-01 14:35:00,
2013-10-01 10:37:00,56.9,56.9,30.26,SW,233,1.0,2.0,100,0.00,,,0.01,Wunderground v.1.15,2013-10-01 14:37:00,
2013-10-01 10:39:00,57.0,57.0,30.26,SW,233,1.0,2.0,100,0.00,,,0.01,Wunderground v.1.15,2013-10-01 14:39:00,
2013-10-01 10:43:00,57.2,57.2,30.26,West,271,1.0,4.0,100,0.00,,,0.01,Wunderground v.1.15,2013-10-01 14:43:00,
2013-10-01 10:44:00,57.2,57.2,30.26,West,271,2.0,4.0,100,0.00,,,0.01,Wunderground v.1.15,2013-10-01 14:44:00,
2013-10-01 10:45:00,57.2,57.2,30.26,West,271,2.0,4.0,100,0.00,,,0.01,Wunderground v.1.15,2013-10-01 14:45:00,
2013-10-01 10:50:00,57.5,57.5,30.26,West,271,1.0,2.0,100,0.00,,,0.01,Wunderground v.1.15,2013-10-01 14:50:00,
2013-10-01 10:52:00,57.6,57.6,30.26,West,271,1.0,2.0,100,0.00,,,0.01,Wunderground v.1.15,2013-10-01 14:52:00,
2013-10-01 10:57:00,58.0,58.0,30.26,SSW,200,1.0,2.0,100,0.00,,,0.01,Wunderground v.1.15,2013-10-01 14:57:00,
2013-10-01 10:58:00,58.2,58.2,30.26,SSW,200,1.0,2.0,100,0.00,,,0.01,Wunderground v.1.15,2013-10-01 14:58:00,
2013-10-01 11:00:00,58.4,58.4,30.26,SSW,200,1.0,2.0,100,0.00,,,0.01,Wunderground v.1.15,2013-10-01 15:00:00,
2013-10-01 11:04:00,58.5,58.5,30.26,West,261,1.0,5.0,100,0.00,,,0.01,Wunderground v.1.15,2013-10-01 15:04:00,
2013-10-01 11:05:00,58.5,58.5,30.26,West,261,1.0,5.0,100,0.00,,,0.01,Wunderground v.1.15,2013-10-01 15:05:00,
2013-10-01 11:09:00,58.7,58.7,30.26,West,261,2.0,5.0,100,0.00,,,0.01,Wunderground v.1.15,2013-10-01 15:09:00,
2013-10-01 11:11:00,59.0,59.0,30.26,SW,221,2.0,2.0,100,0.00,,,0.01,Wunderground v.1.15,2013-10-01 15:11:00,
2013-10-01 11:12:00,59.1,59.1,30.26,SW,221,2.0,2.0,100,0.00,,,0.01,Wunderground v.1.15,2013-10-01 15:12:00,
2013-10-01 11:17:00,59.9,59.9,30.25,SW,221,1.0,2.0,100,0.00,,,0.01,Wunderground v.1.15,2013-10-01 15:17:00,
2013-10-01 11:18:00,60.0,60.0,30.25,SW,221,1.0,2.0,100,0.00,,,0.01,Wunderground v.1.15,2013-10-01 15:18:00,
2013-10-01 11:23:00,60.6,60.6,30.25,SSE,157,1.0,5.0,100,0.00,,,0.01,Wunderground v.1.15,2013-10-01 15:23:00,
2013-10-01 11:27:00,61.0,61.0,30.25,SSE,149,2.0,5.0,100,0.00,,,0.01,Wunderground v.1.15,2013-10-01 15:27:00,
2013-10-01 11:28:00,61.2,61.2,30.25,SSE,149,2.0,5.0,100,0.00,,,0.01,Wunderground v.1.15,2013-10-01 15:28:00,
2013-10-01 11:30:00,61.6,61.6,30.25,ESE,117,2.0,2.0,100,0.00,,,0.01,Wunderground v.1.15,2013-10-01 15:30:00,
2013-10-01 11:33:00,62.3,62.0,30.25,SE,146,2.0,2.0,99,0.00,,,0.01,Wunderground v.1.15,2013-10-01 15:33:00,
2013-10-01 11:35:00,62.5,61.6,30.25,SSW,201,2.0,4.0,97,0.00,,,0.01,Wunderground v.1.15,2013-10-01 15:35:00,
2013-10-01 11:39:00,62.9,61.1,30.25,SSW,201,2.0,4.0,94,0.00,,,0.01,Wunderground v.1.15,2013-10-01 15:39:00,
2013-10-01 11:43:00,63.6,61.2,30.25,SSE,168,2.0,2.0,92,0.00,,,0.01,Wunderground v.1.15,2013-10-01 15:43:00,
2013-10-01 11:44:00,63.8,61.4,30.25,SSE,168,2.0,2.0,92,0.00,,,0.01,Wunderground v.1.15,2013-10-01 15:44:00,
2013-10-01 11:47:00,64.3,61.0,30.25,SSW,205,1.0,5.0,89,0.00,,,0.01,Wunderground v.1.15,2013-10-01 15:47:00,
2013-10-01 11:49:00,64.5,60.9,30.25,SSW,208,2.0,5.0,88,0.00,,,0.01,Wunderground v.1.15,2013-10-01 15:49:00,
2013-10-01 11:50:00,64.6,61.3,30.25,SSW,213,2.0,2.0,89,0.00,,,0.01,Wunderground v.1.15,2013-10-01 15:50:00,
2013-10-01 11:55:00,65.5,61.2,30.25,SE,128,2.0,2.0,86,0.00,,,0.01,Wunderground v.1.15,2013-10-01 15:55:00,
2013-10-01 11:56:00,65.7,61.1,30.25,SE,136,2.0,2.0,85,0.00,,,0.01,Wunderground v.1.15,2013-10-01 15:56:00,
2013-10-01 11:58:00,65.9,60.9,30.24,WSW,250,2.0,4.0,84,0.00,,,0.01,Wunderground v.1.15,2013-10-01 15:58:00,
2013-10-01 12:01:00,66.1,61.1,30.24,WSW,254,2.0,2.0,84,0.00,,,0.01,Wunderground v.1.15,2013-10-01 16:01:00,
2013-10-01 12:02:00,66.2,60.9,30.24,WSW,255,2.0,2.0,83,0.00,,,0.01,Wunderground v.1.15,2013-10-01 16:02:00,
2013-10-01 12:03:00,66.2,60.9,30.24,WSW,255,2.0,2.0,83,0.00,,,0.01,Wunderground v.1.15,2013-10-01 16:03:00,
2013-10-01 12:09:00,66.9,61.6,30.24,ESE,102,2.0,3.0,83,0.00,,,0.01,Wunderground v.1.15,2013-10-01 16:09:00,
2013-10-01 12:10:00,67.1,61.8,30.24,SE,126,2.0,2.0,83,0.00,,,0.01,Wunderground v.1.15,2013-10-01 16:10:00,
2013-10-01 12:11:00,67.3,61.6,30.24,SE,144,2.0,2.0,82,0.00,,,0.01,Wunderground v.1.15,2013-10-01 16:11:00,
2013-10-01 12:15:00,67.9,61.9,30.24,SSE,150,2.0,2.0,81,0.00,,,0.01,Wunderground v.1.15,2013-10-01 16:15:00,
2013-10-01 12:17:00,68.3,60.8,30.24,SW,227,2.0,4.0,77,0.00,,,0.01,Wunderground v.1.15,2013-10-01 16:17:00,
2013-10-01 12:21:00,68.7,59.7,30.24,NW,305,2.0,6.0,73,0.00,,,0.01,Wunderground v.1.15,2013-10-01 16:21:00,
2013-10-01 12:23:00,68.8,59.0,30.24,NW,305,2.0,6.0,71,0.00,,,0.01,Wunderground v.1.15,2013-10-01 16:23:00,
2013-10-01 12:25:00,69.0,59.6,30.24,West,275,2.0,6.0,72,0.00,,,0.01,Wunderground v.1.15,2013-10-01 16:25:00,
2013-10-01 12:30:00,69.6,59.8,30.24,SSE,163,1.0,2.0,71,0.00,,,0.01,Wunderground v.1.15,2013-10-01 16:30:00,
2013-10-01 12:31:00,69.7,60.3,30.24,SSE,165,1.0,5.0,72,0.00,,,0.01,Wunderground v.1.15,2013-10-01 16:31:00,
2013-10-01 12:32:00,69.8,59.2,30.24,South,184,2.0,5.0,69,0.00,,,0.01,Wunderground v.1.15,2013-10-01 16:32:00,
2013-10-01 12:36:00,69.8,57.9,30.24,WSW,240,4.0,8.0,66,0.00,,,0.01,Wunderground v.1.15,2013-10-01 16:36:00,
2013-10-01 12:38:00,69.6,57.3,30.24,WNW,294,5.0,8.0,65,0.00,,,0.01,Wunderground v.1.15,2013-10-01 16:38:00,
2013-10-01 12:42:00,69.6,56.9,30.24,West,281,5.0,6.0,64,0.00,,,0.01,Wunderground v.1.15,2013-10-01 16:42:00,
2013-10-01 12:44:00,69.6,56.0,30.24,WNW,284,5.0,6.0,62,0.00,,,0.01,Wunderground v.1.15,2013-10-01 16:44:00,
2013-10-01 12:47:00,69.6,57.7,30.24,WSW,243,4.0,6.0,66,0.00,,,0.01,Wunderground v.1.15,2013-10-01 16:47:00,
2013-10-01 12:49:00,69.7,57.0,30.24,West,260,4.0,6.0,64,0.00,,,0.01,Wunderground v.1.15,2013-10-01 16:49:00,
2013-10-01 12:50:00,69.7,57.0,30.24,West,259,4.0,4.0,64,0.00,,,0.01,Wunderground v.1.15,2013-10-01 16:50:00,
2013-10-01 12:54:00,70.0,55.5,30.23,WSW,248,3.0,7.0,60,0.00,,,0.01,Wunderground v.1.15,2013-10-01 16:54:00,
2013-10-01 12:55:00,70.0,55.5,30.23,WSW,242,3.0,13.0,60,0.00,,,0.01,Wunderground v.1.15,2013-10-01 16:55:00,
2013-10-01 12:59:00,69.9,56.7,30.23,WNW,292,5.0,13.0,63,0.00,,,0.01,Wunderground v.1.15,2013-10-01 16:59:00,
2013-10-01 13:00:00,69.9,56.7,30.23,WNW,284,6.0,7.0,63,0.00,,,0.01,Wunderground v.1.15,2013-10-01 17:00:00,
2013-10-01 13:02:00,70.1,57.8,30.23,West,279,7.0,8.0,65,0.00,,,0.01,Wunderground v.1.15,2013-10-01 17:02:00,
2013-10-01 13:05:00,70.3,57.5,30.23,WSW,244,7.0,8.0,64,0.00,,,0.01,Wunderground v.1.15,2013-10-01 17:05:00,
2013-10-01 13:11:00,70.6,56.5,30.23,SSW,207,4.0,7.0,61,0.00,,,0.01,Wunderground v.1.15,2013-10-01 17:11:00,
2013-10-01 13:12:00,70.6,56.0,30.23,South,187,4.0,7.0,60,0.00,,,0.01,Wunderground v.1.15,2013-10-01 17:12:00,
2013-10-01 13:16:00,70.8,56.2,30.22,SSW,207,3.0,7.0,60,0.00,,,0.01,Wunderground v.1.15,2013-10-01 17:16:00,
2013-10-01 13:18:00,71.0,56.9,30.22,SW,220,3.0,7.0,61,0.00,,,0.01,Wunderground v.1.15,2013-10-01 17:18:00,
2013-10-01 13:19:00,71.1,57.4,30.22,SSW,211,4.0,7.0,62,0.00,,,0.01,Wunderground v.1.15,2013-10-01 17:19:00,
2013-10-01 13:21:00,71.2,57.1,30.22,WSW,238,4.0,5.0,61,0.00,,,0.01,Wunderground v.1.15,2013-10-01 17:21:00,
2013-10-01 13:27:00,71.3,57.6,30.22,South,184,5.0,6.0,62,0.00,,,0.01,Wunderground v.1.15,2013-10-01 17:27:00,
2013-10-01 13:28:00,71.3,56.2,30.22,SW,236,5.0,7.0,59,0.00,,,0.01,Wunderground v.1.15,2013-10-01 17:28:00,
2013-10-01 13:31:00,71.2,56.1,30.22,SSW,198,6.0,6.0,59,0.00,,,0.01,Wunderground v.1.15,2013-10-01 17:31:00,
2013-10-01 13:34:00,71.5,57.3,30.22,West,277,5.0,9.0,61,0.00,,,0.01,Wunderground v.1.15,2013-10-01 17:34:00,
2013-10-01 13:35:00,71.5,56.4,30.21,NW,304,5.0,9.0,59,0.00,,,0.01,Wunderground v.1.15,2013-10-01 17:35:00,
2013-10-01 13:36:00,71.5,55.9,30.21,WNW,298,6.0,9.0,58,0.00,,,0.01,Wunderground v.1.15,2013-10-01 17:36:00,
2013-10-01 13:40:00,71.5,56.4,30.21,SSW,213,5.0,6.0,59,0.00,,,0.01,Wunderground v.1.15,2013-10-01 17:40:00,
2013-10-01 13:42:00,71.5,55.9,30.21,SW,232,5.0,6.0,58,0.00,,,0.01,Wunderground v.1.15,2013-10-01 17:42:00,
2013-10-01 13:47:00,72.0,57.4,30.21,SW,219,4.0,6.0,60,0.00,,,0.01,Wunderground v.1.15,2013-10-01 17:47:00,
2013-10-01 13:48:00,72.1,56.0,30.20,WSW,238,4.0,6.0,57,0.00,,,0.01,Wunderground v.1.15,2013-10-01 17:48:00,
2013-10-01 13:53:00,72.3,55.7,30.20,NW,310,4.0,6.0,56,0.00,,,0.01,Wunderground v.1.15,2013-10-01 17:53:00,
2013-10-01 13:54:00,72.2,56.6,30.20,West,275,4.0,6.0,58,0.00,,,0.01,Wunderground v.1.15,2013-10-01 17:54:00,
2013-10-01 13:58:00,72.3,58.1,30.20,WSW,240,4.0,8.0,61,0.00,,,0.01,Wunderground v.1.15,2013-10-01 17:58:00,
2013-10-01 14:00:00,72.4,57.7,30.20,WSW,243,5.0,5.0,60,0.00,,,0.01,Wunderground v.1.15,2013-10-01 18:00:00,
2013-10-01 14:02:00,72.4,56.8,30.20,SW,232,5.0,7.0,58,0.00,,,0.01,Wunderground v.1.15,2013-10-01 18:02:00,
2013-10-01 14:04:00,72.4,57.7,30.20,SW,227,5.0,7.0,60,0.00,,,0.01,Wunderground v.1.15,2013-10-01 18:04:00,
2013-10-01 14:06:00,72.6,58.8,30.19,SSW,194,5.0,7.0,62,0.00,,,0.01,Wunderground v.1.15,2013-10-01 18:06:00,
2013-10-01 14:10:00,72.7,58.0,30.19,SSE,150,4.0,4.0,60,0.00,,,0.01,Wunderground v.1.15,2013-10-01 18:10:00,
2013-10-01 14:11:00,72.7,57.1,30.19,SSW,207,4.0,5.0,58,0.00,,,0.01,Wunderground v.1.15,2013-10-01 18:11:00,
2013-10-01 14:13:00,72.8,57.6,30.19,WSW,250,4.0,8.0,59,0.00,,,0.01,Wunderground v.1.15,2013-10-01 18:13:00,
2013-10-01 14:16:00,72.9,55.8,30.19,WSW,251,5.0,8.0,55,0.00,,,0.01,Wunderground v.1.15,2013-10-01 18:16:00,
2013-10-01 14:17:00,72.8,56.2,30.19,West,281,5.0,8.0,56,0.00,,,0.01,Wunderground v.1.15,2013-10-01 18:17:00,
2013-10-01 14:19:00,72.8,56.7,30.19,WSW,246,5.0,9.0,57,0.00,,,0.01,Wunderground v.1.15,2013-10-01 18:19:00,
2013-10-01 14:25:00,72.9,56.3,30.18,SW,233,5.0,8.0,56,0.00,,,0.01,Wunderground v.1.15,2013-10-01 18:25:00,
2013-10-01 14:28:00,73.0,55.9,30.18,South,180,5.0,8.0,55,0.00,,,0.01,Wunderground v.1.15,2013-10-01 18:28:00,
2013-10-01 14:31:00,73.1,57.9,30.18,WSW,240,5.0,7.0,59,0.00,,,0.01,Wunderground v.1.15,2013-10-01 18:31:00,
2013-10-01 14:34:00,73.3,57.1,30.18,WNW,286,5.0,7.0,57,0.00,,,0.01,Wunderground v.1.15,2013-10-01 18:34:00,
2013-10-01 14:37:00,73.5,58.3,30.18,WNW,288,4.0,7.0,59,0.00,,,0.01,Wunderground v.1.15,2013-10-01 18:37:00,
2013-10-01 14:41:00,73.4,55.7,30.18,NW,307,3.0,6.0,54,0.00,,,0.01,Wunderground v.1.15,2013-10-01 18:41:00,
2013-10-01 14:42:00,73.2,56.1,30.18,NW,311,4.0,6.0,55,0.00,,,0.01,Wunderground v.1.15,2013-10-01 18:42:00,
2013-10-01 14:45:00,73.0,57.3,30.18,WSW,241,4.0,7.0,58,0.00,,,0.01,Wunderground v.1.15,2013-10-01 18:45:00,
2013-10-01 14:48:00,73.1,56.5,30.18,WSW,254,5.0,7.0,56,0.00,,,0.01,Wunderground v.1.15,2013-10-01 18:48:00,
2013-10-01 14:50:00,73.0,56.9,30.18,WSW,256,6.0,6.0,57,0.00,,,0.01,Wunderground v.1.15,2013-10-01 18:50:00,
2013-10-01 14:55:00,73.0,56.9,30.18,WSW,238,5.0,6.0,57,0.00,,,0.01,Wunderground v.1.15,2013-10-01 18:55:00,
2013-10-01 14:56:00,73.0,56.9,30.18,South,184,5.0,6.0,57,0.00,,,0.01,Wunderground v.1.15,2013-10-01 18:56:00,
2013-10-01 14:57:00,73.0,56.9,30.18,WNW,298,4.0,6.0,57,0.00,,,0.01,Wunderground v.1.15,2013-10-01 18:57:00,
2013-10-01 15:02:00,72.7,55.6,30.18,SSW,204,3.0,5.0,55,0.00,,,0.01,Wunderground v.1.15,2013-10-01 19:02:00,
2013-10-01 15:03:00,72.6,55.5,30.18,WNW,297,4.0,5.0,55,0.00,,,0.01,Wunderground v.1.15,2013-10-01 19:03:00,
2013-10-01 15:05:00,72.5,56.9,30.18,NNW,343,4.0,6.0,58,0.00,,,0.01,Wunderground v.1.15,2013-10-01 19:05:00,
2013-10-01 15:08:00,72.4,55.3,30.18,NW,318,4.0,6.0,55,0.00,,,0.01,Wunderground v.1.15,2013-10-01 19:08:00,
2013-10-01 15:09:00,72.4,55.8,30.18,North,5,4.0,6.0,56,0.00,,,0.01,Wunderground v.1.15,2013-10-01 19:09:00,
2013-10-01 15:10:00,72.5,55.9,30.17,NNW,345,4.0,4.0,56,0.00,,,0.01,Wunderground v.1.15,2013-10-01 19:10:00,
2013-10-01 15:15:00,73.2,57.1,30.17,WSW,237,3.0,5.0,57,0.00,,,0.01,Wunderground v.1.15,2013-10-01 19:15:00,
2013-10-01 15:16:00,73.5,56.8,30.17,NW,311,3.0,5.0,56,0.00,,,0.01,Wunderground v.1.15,2013-10-01 19:16:00,
2013-10-01 15:18:00,73.7,57.0,30.17,West,261,3.0,5.0,56,0.00,,,0.01,Wunderground v.1.15,2013-10-01 19:18:00,
2013-10-01 15:21:00,73.9,56.2,30.17,WSW,240,3.0,3.0,54,0.00,,,0.01,Wunderground v.1.15,2013-10-01 19:21:00,
2013-10-01 15:22:00,73.9,56.2,30.17,WSW,250,4.0,5.0,54,0.00,,,0.01,Wunderground v.1.15,2013-10-01 19:22:00,
2013-10-01 15:27:00,73.4,56.7,30.17,South,172,4.0,7.0,56,0.00,,,0.01,Wunderground v.1.15,2013-10-01 19:27:00,
2013-10-01 15:31:00,73.1,56.5,30.17,SSW,211,5.0,7.0,56,0.00,,,0.01,Wunderground v.1.15,2013-10-01 19:31:00,
2013-10-01 15:33:00,73.1,57.0,30.17,South,190,5.0,7.0,57,0.00,,,0.01,Wunderground v.1.15,2013-10-01 19:33:00,
2013-10-01 15:34:00,73.1,57.0,30.17,WSW,247,4.0,7.0,57,0.00,,,0.01,Wunderground v.1.15,2013-10-01 19:34:00,
2013-10-01 15:37:00,73.5,57.8,30.17,SW,228,4.0,7.0,58,0.00,,,0.01,Wunderground v.1.15,2013-10-01 19:37:00,
2013-10-01 15:39:00,73.9,59.1,30.17,WSW,255,4.0,7.0,60,0.00,,,0.01,Wunderground v.1.15,2013-10-01 19:39:00,
2013-10-01 15:41:00,74.3,59.0,30.17,WSW,256,4.0,4.0,59,0.00,,,0.01,Wunderground v.1.15,2013-10-01 19:41:00,
2013-10-01 15:46:00,74.3,57.6,30.17,North,350,4.0,6.0,56,0.00,,,0.01,Wunderground v.1.15,2013-10-01 19:46:00,
2013-10-01 15:47:00,74.3,57.6,30.17,WSW,250,4.0,6.0,56,0.00,,,0.01,Wunderground v.1.15,2013-10-01 19:47:00,
2013-10-01 15:50:00,74.2,58.5,30.16,West,275,4.0,7.0,58,0.00,,,0.01,Wunderground v.1.15,2013-10-01 19:50:00,
2013-10-01 15:54:00,74.2,58.5,30.16,West,273,5.0,7.0,58,0.00,,,0.01,Wunderground v.1.15,2013-10-01 19:54:00,
2013-10-01 15:56:00,74.2,57.5,30.16,SW,223,5.0,7.0,56,0.00,,,0.01,Wunderground v.1.15,2013-10-01 19:56:00,
2013-10-01 15:57:00,74.1,56.4,30.16,SW,227,5.0,7.0,54,0.00,,,0.01,Wunderground v.1.15,2013-10-01 19:57:00,
2013-10-01 16:01:00,73.8,56.6,30.16,WNW,290,4.0,5.0,55,0.00,,,0.01,Wunderground v.1.15,2013-10-01 20:01:00,
2013-10-01 16:02:00,73.7,57.0,30.16,WSW,238,4.0,5.0,56,0.00,,,0.01,Wunderground v.1.15,2013-10-01 20:02:00,
2013-10-01 16:04:00,73.2,57.1,30.16,WSW,254,4.0,5.0,57,0.00,,,0.01,Wunderground v.1.15,2013-10-01 20:04:00,
2013-10-01 16:06:00,72.9,57.3,30.16,WSW,250,4.0,5.0,58,0.00,,,0.01,Wunderground v.1.15,2013-10-01 20:06:00,
2013-10-01 16:07:00,72.7,57.5,30.16,WSW,239,4.0,5.0,59,0.00,,,0.01,Wunderground v.1.15,2013-10-01 20:07:00,
2013-10-01 16:09:00,72.4,57.7,30.16,WSW,252,4.0,5.0,60,0.00,,,0.01,Wunderground v.1.15,2013-10-01 20:09:00,
2013-10-01 16:11:00,72.3,57.6,30.16,SW,220,4.0,4.0,60,0.00,,,0.01,Wunderground v.1.15,2013-10-01 20:11:00,
2013-10-01 16:14:00,72.2,57.1,30.15,SW,223,4.0,4.0,59,0.00,,,0.01,Wunderground v.1.15,2013-10-01 20:14:00,
2013-10-01 16:16:00,72.3,57.6,30.15,West,271,4.0,4.0,60,0.00,,,0.01,Wunderground v.1.15,2013-10-01 20:16:00,
2013-10-01 16:18:00,72.4,58.2,30.16,West,271,3.0,4.0,61,0.00,,,0.01,Wunderground v.1.15,2013-10-01 20:18:00,
2013-10-01 16:23:00,73.1,57.9,30.16,NW,309,2.0,3.0,59,0.00,,,0.01,Wunderground v.1.15,2013-10-01 20:23:00,
2013-10-01 16:24:00,73.2,57.5,30.16,NW,309,2.0,3.0,58,0.00,,,0.01,Wunderground v.1.15,2013-10-01 20:24:00,
2013-10-01 16:29:00,73.6,59.3,30.15,South,176,2.0,7.0,61,0.00,,,0.01,Wunderground v.1.15,2013-10-01 20:29:00,
2013-10-01 16:30:00,73.5,59.2,30.15,South,169,2.0,3.0,61,0.00,,,0.01,Wunderground v.1.15,2013-10-01 20:30:00,
2013-10-01 16:32:00,73.5,59.7,30.15,South,169,2.0,3.0,62,0.00,,,0.01,Wunderground v.1.15,2013-10-01 20:32:00,
2013-10-01 16:34:00,73.5,60.1,30.15,South,170,3.0,6.0,63,0.00,,,0.01,Wunderground v.1.15,2013-10-01 20:34:00,
2013-10-01 16:39:00,73.0,59.7,30.16,SSE,156,4.0,8.0,63,0.00,,,0.01,Wunderground v.1.15,2013-10-01 20:39:00,
2013-10-01 16:40:00,72.9,59.6,30.15,SSE,157,4.0,4.0,63,0.00,,,0.01,Wunderground v.1.15,2013-10-01 20:40:00,
2013-10-01 16:41:00,72.9,60.0,30.15,SSE,157,4.0,4.0,64,0.00,,,0.01,Wunderground v.1.15,2013-10-01 20:41:00,
2013-10-01 16:46:00,73.0,60.5,30.15,SSW,198,4.0,8.0,65,0.00,,,0.01,Wunderground v.1.15,2013-10-01 20:46:00,
2013-10-01 16:47:00,73.0,61.8,30.16,SSE,156,5.0,8.0,68,0.00,,,0.01,Wunderground v.1.15,2013-10-01 20:47:00,
2013-10-01 16:50:00,73.1,61.1,30.15,SSW,203,5.0,9.0,66,0.00,,,0.01,Wunderground v.1.15,2013-10-01 20:50:00,
2013-10-01 16:52:00,73.0,60.1,30.16,SSW,197,6.0,9.0,64,0.00,,,0.01,Wunderground v.1.15,2013-10-01 20:52:00,
2013-10-01 16:53:00,72.8,59.9,30.16,South,190,6.0,9.0,64,0.00,,,0.01,Wunderground v.1.15,2013-10-01 20:53:00,
2013-10-01 16:58:00,72.3,59.9,30.16,SW,215,8.0,9.0,65,0.00,,,0.01,Wunderground v.1.15,2013-10-01 20:58:00,
2013-10-01 16:59:00,72.3,59.4,30.16,SSW,211,8.0,9.0,64,0.00,,,0.01,Wunderground v.1.15,2013-10-01 20:59:00,
2013-10-01 17:00:00,72.4,59.1,30.16,SSW,213,8.0,8.0,63,0.00,,,0.01,Wunderground v.1.15,2013-10-01 21:00:00,
2013-10-01 17:03:00,72.2,59.3,30.16,South,184,8.0,11.0,64,0.00,,,0.01,Wunderground v.1.15,2013-10-01 21:03:00,
2013-10-01 17:05:00,72.2,59.3,30.15,SW,228,8.0,11.0,64,0.00,,,0.01,Wunderground v.1.15,2013-10-01 21:05:00,
2013-10-01 17:06:00,72.2,59.8,30.15,SSW,207,8.0,11.0,65,0.00,,,0.01,Wunderground v.1.15,2013-10-01 21:06:00,
2013-10-01 17:08:00,72.2,60.2,30.16,SW,230,8.0,11.0,66,0.00,,,0.01,Wunderground v.1.15,2013-10-01 21:08:00,
2013-10-01 17:11:00,72.3,60.3,30.16,SSW,198,8.0,8.0,66,0.00,,,0.01,Wunderground v.1.15,2013-10-01 21:11:00,
2013-10-01 17:15:00,72.4,60.0,30.15,SW,217,7.0,8.0,65,0.00,,,0.01,Wunderground v.1.15,2013-10-01 21:15:00,
2013-10-01 17:17:00,72.3,59.4,30.15,SSW,213,7.0,9.0,64,0.00,,,0.01,Wunderground v.1.15,2013-10-01 21:17:00,
2013-10-01 17:20:00,72.3,59.9,30.15,SSW,194,7.0,7.0,65,0.00,,,0.01,Wunderground v.1.15,2013-10-01 21:20:00,
2013-10-01 17:21:00,72.3,60.3,30.15,SSW,194,6.0,7.0,66,0.00,,,0.01,Wunderground v.1.15,2013-10-01 21:21:00,
2013-10-01 17:25:00,72.5,60.5,30.15,South,190,5.0,7.0,66,0.00,,,0.01,Wunderground v.1.15,2013-10-01 21:25:00,
2013-10-01 17:27:00,72.4,60.8,30.15,SW,219,5.0,7.0,67,0.00,,,0.01,Wunderground v.1.15,2013-10-01 21:27:00,
2013-10-01 17:29:00,72.4,60.0,30.15,SW,216,5.0,8.0,65,0.00,,,0.01,Wunderground v.1.15,2013-10-01 21:29:00,
2013-10-01 17:33:00,72.2,60.2,30.15,WSW,242,5.0,6.0,66,0.00,,,0.01,Wunderground v.1.15,2013-10-01 21:33:00,
2013-10-01 17:35:00,72.2,61.0,30.15,SSE,156,5.0,6.0,68,0.00,,,0.01,Wunderground v.1.15,2013-10-01 21:35:00,
2013-10-01 17:38:00,72.1,60.1,30.15,SSW,209,5.0,8.0,66,0.00,,,0.01,Wunderground v.1.15,2013-10-01 21:38:00,
2013-10-01 17:43:00,71.9,59.9,30.15,SSW,193,5.0,8.0,66,0.00,,,0.01,Wunderground v.1.15,2013-10-01 21:43:00,
2013-10-01 17:44:00,71.8,60.2,30.15,SSE,157,5.0,8.0,67,0.00,,,0.01,Wunderground v.1.15,2013-10-01 21:44:00,
2013-10-01 17:47:00,71.7,60.2,30.15,SSW,198,6.0,8.0,67,0.00,,,0.01,Wunderground v.1.15,2013-10-01 21:47:00,
2013-10-01 17:49:00,71.6,59.6,30.15,SSW,200,6.0,8.0,66,0.00,,,0.01,Wunderground v.1.15,2013-10-01 21:49:00,
2013-10-01 17:51:00,71.6,60.1,30.15,SSW,202,5.0,6.0,67,0.00,,,0.01,Wunderground v.1.15,2013-10-01 21:51:00,
2013-10-01 17:54:00,71.6,60.1,30.15,South,175,5.0,6.0,67,0.00,,,0.01,Wunderground v.1.15,2013-10-01 21:54:00,
2013-10-01 17:55:00,71.6,60.5,30.15,SSE,165,4.0,6.0,68,0.00,,,0.01,Wunderground v.1.15,2013-10-01 21:55:00,
2013-10-01 18:00:00,71.4,59.9,30.15,SSE,150,3.0,4.0,67,0.00,,,0.01,Wunderground v.1.15,2013-10-01 22:00:00,
2013-10-01 18:01:00,71.4,59.9,30.16,SSE,167,3.0,4.0,67,0.00,,,0.01,Wunderground v.1.15,2013-10-01 22:01:00,
2013-10-01 18:07:00,71.1,60.4,30.16,South,170,4.0,7.0,69,0.00,,,0.01,Wunderground v.1.15,2013-10-01 22:07:00,
2013-10-01 18:08:00,71.1,60.4,30.16,South,170,3.0,7.0,69,0.00,,,0.01,Wunderground v.1.15,2013-10-01 22:08:00,
2013-10-01 18:14:00,70.5,59.8,30.16,SSE,148,3.0,4.0,69,0.00,,,0.01,Wunderground v.1.15,2013-10-01 22:14:00,
2013-10-01 18:16:00,70.4,60.1,30.16,South,178,2.0,4.0,70,0.00,,,0.01,Wunderground v.1.15,2013-10-01 22:16:00,
2013-10-01 18:17:00,70.3,60.1,30.16,South,178,3.0,4.0,70,0.00,,,0.01,Wunderground v.1.15,2013-10-01 22:17:00,
2013-10-01 18:20:00,70.1,60.3,30.16,South,177,2.0,2.0,71,0.00,,,0.01,Wunderground v.1.15,2013-10-01 22:20:00,
2013-10-01 18:23:00,69.8,60.4,30.16,South,177,2.0,2.0,72,0.00,,,0.01,Wunderground v.1.15,2013-10-01 22:23:00,
2013-10-01 18:25:00,69.7,60.3,30.16,SSE,163,1.0,2.0,72,0.00,,,0.01,Wunderground v.1.15,2013-10-01 22:25:00,
2013-10-01 18:26:00,69.6,60.2,30.16,SSE,163,1.0,2.0,72,0.00,,,0.01,Wunderground v.1.15,2013-10-01 22:26:00,
2013-10-01 18:28:00,69.5,60.5,30.16,SSE,163,1.0,2.0,73,0.00,,,0.01,Wunderground v.1.15,2013-10-01 22:28:00,
2013-10-01 18:32:00,69.2,60.2,30.16,SSE,163,1.0,2.0,73,0.00,,,0.01,Wunderground v.1.15,2013-10-01 22:32:00,
2013-10-01 18:33:00,69.1,60.1,30.16,SSE,163,1.0,2.0,73,0.00,,,0.01,Wunderground v.1.15,2013-10-01 22:33:00,
2013-10-01 18:35:00,69.0,60.4,30.16,SSE,163,1.0,2.0,74,0.00,,,0.01,Wunderground v.1.15,2013-10-01 22:35:00,
2013-10-01 18:38:00,68.7,60.5,30.16,SSE,163,1.0,2.0,75,0.00,,,0.01,Wunderground v.1.15,2013-10-01 22:38:00,
2013-10-01 18:39:00,68.6,60.4,30.16,SSE,163,1.0,2.0,75,0.00,,,0.01,Wunderground v.1.15,2013-10-01 22:39:00,
2013-10-01 18:40:00,68.5,60.3,30.16,SSE,163,1.0,2.0,75,0.00,,,0.01,Wunderground v.1.15,2013-10-01 22:40:00,
2013-10-01 18:43:00,68.3,60.1,30.16,SSE,163,1.0,2.0,75,0.00,,,0.01,Wunderground v.1.15,2013-10-01 22:43:00,
2013-10-01 18:48:00,68.0,59.8,30.17,South,174,1.0,2.0,75,0.00,,,0.01,Wunderground v.1.15,2013-10-01 22:48:00,
2013-10-01 18:49:00,67.9,59.7,30.17,South,174,1.0,2.0,75,0.00,,,0.01,Wunderground v.1.15,2013-10-01 22:49:00,
2013-10-01 18:52:00,67.8,60.0,30.17,South,175,1.0,3.0,76,0.00,,,0.01,Wunderground v.1.15,2013-10-01 22:52:00,
2013-10-01 18:55:00,67.7,60.6,30.17,South,175,1.0,3.0,78,0.00,,,0.01,Wunderground v.1.15,2013-10-01 22:55:00,
2013-10-01 18:59:00,67.4,60.3,30.17,South,175,1.0,3.0,78,0.00,,,0.01,Wunderground v.1.15,2013-10-01 22:59:00,
2013-10-01 19:00:00,67.2,60.5,30.17,South,175,1.0,1.0,79,0.00,,,0.01,Wunderground v.1.15,2013-10-01 23:00:00,
2013-10-01 19:03:00,67.0,60.6,30.17,South,175,0.0,2.0,80,0.00,,,0.01,Wunderground v.1.15,2013-10-01 23:03:00,
2013-10-01 19:04:00,66.8,60.4,30.17,South,175,0.0,2.0,80,0.00,,,0.01,Wunderground v.1.15,2013-10-01 23:04:00,
2013-10-01 19:05:00,66.7,60.7,30.17,South,175,0.0,2.0,81,0.00,,,0.01,Wunderground v.1.15,2013-10-01 23:05:00,
2013-10-01 19:08:00,66.3,60.6,30.17,South,175,0.0,2.0,82,0.00,,,0.01,Wunderground v.1.15,2013-10-01 23:08:00,
2013-10-01 19:09:00,66.3,61.0,30.17,South,175,0.0,2.0,83,0.00,,,0.01,Wunderground v.1.15,2013-10-01 23:09:00,
2013-10-01 19:12:00,65.9,60.6,30.17,South,175,0.0,2.0,83,0.00,,,0.01,Wunderground v.1.15,2013-10-01 23:12:00,
2013-10-01 19:14:00,65.6,60.6,30.17,South,175,0.0,2.0,84,0.00,,,0.01,Wunderground v.1.15,2013-10-01 23:14:00,
2013-10-01 19:18:00,65.3,60.7,30.17,South,175,0.0,2.0,85,0.00,,,0.01,Wunderground v.1.15,2013-10-01 23:18:00,
2013-10-01 19:22:00,65.1,60.5,30.17,South,175,1.0,2.0,85,0.00,,,0.01,Wunderground v.1.15,2013-10-01 23:22:00,
2013-10-01 19:23:00,65.0,60.4,30.17,South,175,1.0,2.0,85,0.00,,,0.01,Wunderground v.1.15,2013-10-01 23:23:00,
2013-10-01 19:24:00,65.0,60.7,30.18,South,175,1.0,2.0,86,0.00,,,0.01,Wunderground v.1.15,2013-10-01 23:24:00,
2013-10-01 19:27:00,64.8,60.5,30.18,South,173,1.0,2.0,86,0.00,,,0.01,Wunderground v.1.15,2013-10-01 23:27:00,
2013-10-01 19:29:00,64.8,60.5,30.18,South,173,1.0,2.0,86,0.00,,,0.01,Wunderground v.1.15,2013-10-01 23:29:00,
2013-10-01 19:30:00,64.8,60.5,30.18,SSE,156,1.0,2.0,86,0.00,,,0.01,Wunderground v.1.15,2013-10-01 23:30:00,
2013-10-01 19:34:00,64.8,60.8,30.18,SSE,156,1.0,2.0,87,0.00,,,0.01,Wunderground v.1.15,2013-10-01 23:34:00,
2013-10-01 19:35:00,64.8,60.8,30.18,SSE,156,1.0,2.0,87,0.00,,,0.01,Wunderground v.1.15,2013-10-01 23:35:00,
2013-10-01 19:37:00,64.8,60.5,30.18,SE,146,1.0,2.0,86,0.00,,,0.01,Wunderground v.1.15,2013-10-01 23:37:00,
2013-10-01 19:39:00,64.8,60.5,30.18,SE,146,0.0,2.0,86,0.00,,,0.01,Wunderground v.1.15,2013-10-01 23:39:00,
2013-10-01 19:40:00,64.8,60.5,30.19,SE,146,0.0,2.0,86,0.00,,,0.01,Wunderground v.1.15,2013-10-01 23:40:00,
2013-10-01 19:43:00,64.8,61.2,30.19,SE,146,0.0,2.0,88,0.00,,,0.01,Wunderground v.1.15,2013-10-01 23:43:00,
2013-10-01 19:44:00,64.8,61.2,30.19,SE,146,1.0,2.0,88,0.00,,,0.01,Wunderground v.1.15,2013-10-01 23:44:00,
2013-10-01 19:45:00,64.7,60.7,30.19,SE,146,1.0,2.0,87,0.00,,,0.01,Wunderground v.1.15,2013-10-01 23:45:00,
2013-10-01 19:46:00,64.8,60.8,30.19,SE,146,0.0,2.0,87,0.00,,,0.01,Wunderground v.1.15,2013-10-01 23:46:00,
2013-10-01 19:50:00,64.8,61.2,30.18,SE,146,1.0,1.0,88,0.00,,,0.01,Wunderground v.1.15,2013-10-01 23:50:00,
2013-10-01 19:52:00,64.7,61.1,30.19,SE,146,1.0,2.0,88,0.00,,,0.01,Wunderground v.1.15,2013-10-01 23:52:00,
2013-10-01 19:55:00,64.5,61.2,30.19,SE,146,0.0,2.0,89,0.00,,,0.01,Wunderground v.1.15,2013-10-01 23:55:00,
2013-10-01 19:56:00,64.5,61.2,30.19,SE,146,0.0,2.0,89,0.00,,,0.01,Wunderground v.1.15,2013-10-01 23:56:00,
2013-10-01 19:58:00,64.5,61.2,30.18,SE,146,0.0,2.0,89,0.00,,,0.01,Wunderground v.1.15,2013-10-01 23:58:00,
2013-10-01 20:02:00,64.4,60.8,30.18,SSE,155,1.0,4.0,88,0.00,,,0.01,Wunderground v.1.15,2013-10-02 00:02:00,
2013-10-01 20:04:00,64.3,61.0,30.19,SSE,155,1.0,4.0,89,0.00,,,0.01,Wunderground v.1.15,2013-10-02 00:04:00,
2013-10-01 20:06:00,64.1,60.8,30.19,SSE,155,1.0,4.0,89,0.00,,,0.01,Wunderground v.1.15,2013-10-02 00:06:00,
2013-10-01 20:09:00,63.9,60.6,30.19,SSE,156,1.0,4.0,89,0.00,,,0.01,Wunderground v.1.15,2013-10-02 00:09:00,
2013-10-01 20:11:00,63.8,60.5,30.19,SSE,156,1.0,2.0,89,0.00,,,0.01,Wunderground v.1.15,2013-10-02 00:11:00,
2013-10-01 20:15:00,63.8,60.2,30.19,SSE,158,2.0,5.0,88,0.00,,,0.01,Wunderground v.1.15,2013-10-02 00:15:00,
2013-10-01 20:16:00,63.8,60.2,30.19,SSE,158,2.0,5.0,88,0.00,,,0.01,Wunderground v.1.15,2013-10-02 00:16:00,
2013-10-01 20:17:00,63.8,60.5,30.19,SSE,158,2.0,5.0,89,0.00,,,0.01,Wunderground v.1.15,2013-10-02 00:17:00,
2013-10-01 20:18:00,63.8,60.2,30.19,SSE,158,2.0,5.0,88,0.00,,,0.01,Wunderground v.1.15,2013-10-02 00:18:00,
2013-10-01 20:21:00,63.8,60.2,30.19,SSE,158,2.0,2.0,88,0.00,,,0.01,Wunderground v.1.15,2013-10-02 00:21:00,
2013-10-01 20:22:00,63.8,60.2,30.19,SSE,158,2.0,2.0,88,0.00,,,0.01,Wunderground v.1.15,2013-10-02 00:22:00,
2013-10-01 20:23:00,63.8,60.2,30.19,SSE,158,1.0,2.0,88,0.00,,,0.01,Wunderground v.1.15,2013-10-02 00:23:00,
2013-10-01 20:24:00,63.8,60.5,30.19,SSE,158,1.0,2.0,89,0.00,,,0.01,Wunderground v.1.15,2013-10-02 00:24:00,
2013-10-01 20:27:00,63.8,60.2,30.19,SSE,158,1.0,2.0,88,0.00,,,0.01,Wunderground v.1.15,2013-10-02 00:27:00,
2013-10-01 20:29:00,63.8,60.2,30.19,SSE,158,0.0,2.0,88,0.00,,,0.01,Wunderground v.1.15,2013-10-02 00:29:00,
2013-10-01 20:30:00,63.8,60.2,30.19,SSE,158,0.0,2.0,88,0.00,,,0.01,Wunderground v.1.15,2013-10-02 00:30:00,
2013-10-01 20:31:00,63.8,60.2,30.19,SSE,158,0.0,2.0,88,0.00,,,0.01,Wunderground v.1.15,2013-10-02 00:31:00,
2013-10-01 20:35:00,63.7,60.1,30.19,SSE,158,0.0,2.0,88,0.00,,,0.01,Wunderground v.1.15,2013-10-02 00:35:00,
2013-10-01 20:36:00,63.7,60.1,30.19,SSE,158,0.0,2.0,88,0.00,,,0.01,Wunderground v.1.15,2013-10-02 00:36:00,
2013-10-01 20:37:00,63.7,60.1,30.19,SSE,158,0.0,2.0,88,0.00,,,0.01,Wunderground v.1.15,2013-10-02 00:37:00,
2013-10-01 20:38:00,63.7,60.1,30.19,SSE,158,0.0,2.0,88,0.00,,,0.01,Wunderground v.1.15,2013-10-02 00:38:00,
2013-10-01 20:40:00,63.7,60.1,30.19,SSE,158,0.0,2.0,88,0.00,,,0.01,Wunderground v.1.15,2013-10-02 00:40:00,
2013-10-01 20:43:00,63.7,60.1,30.19,SSE,158,0.0,2.0,88,0.00,,,0.01,Wunderground v.1.15,2013-10-02 00:43:00,
2013-10-01 20:44:00,63.7,60.1,30.19,SSE,158,0.0,2.0,88,0.00,,,0.01,Wunderground v.1.15,2013-10-02 00:44:00,
2013-10-01 20:46:00,63.7,60.4,30.19,SSE,158,0.0,2.0,89,0.00,,,0.01,Wunderground v.1.15,2013-10-02 00:46:00,
2013-10-01 20:47:00,63.8,60.5,30.19,SSE,158,0.0,2.0,89,0.00,,,0.01,Wunderground v.1.15,2013-10-02 00:47:00,
2013-10-01 20:49:00,63.7,60.7,30.19,SSE,158,0.0,2.0,90,0.00,,,0.01,Wunderground v.1.15,2013-10-02 00:49:00,
2013-10-01 20:52:00,63.6,60.6,30.19,SSE,158,0.0,2.0,90,0.00,,,0.01,Wunderground v.1.15,2013-10-02 00:52:00,